sensor_id;sensor_type;location;lat;lon;timestamp;temperature;humidity
2477;DHT22;1249;51.270;6.756;2023-06-05T00:02:01;22.60;61.60
2477;DHT22;1249;51.270;6.756;2023-06-05T00:04:26;22.60;61.60
2477;DHT22;1249;51.270;6.756;2023-06-05T00:06:53;22.60;61.90
2477;DHT22;1249;51.270;6.756;2023-06-05T00:09:19;22.50;61.80
2477;DHT22;1249;51.270;6.756;2023-06-05T00:11:45;22.50;62.00
2477;DHT22;1249;51.270;6.756;2023-06-05T00:14:11;22.50;62.00
2477;DHT22;1249;51.270;6.756;2023-06-05T00:16:37;22.50;62.20
2477;DHT22;1249;51.270;6.756;2023-06-05T00:19:02;22.50;62.30
2477;DHT22;1249;51.270;6.756;2023-06-05T00:21:28;22.50;62.40
2477;DHT22;1249;51.270;6.756;2023-06-05T00:23:54;22.40;62.40
2477;DHT22;1249;51.270;6.756;2023-06-05T00:26:20;22.40;62.50
2477;DHT22;1249;51.270;6.756;2023-06-05T00:28:46;22.40;62.60
2477;DHT22;1249;51.270;6.756;2023-06-05T00:31:12;22.30;62.70
2477;DHT22;1249;51.270;6.756;2023-06-05T00:33:42;22.30;62.80
2477;DHT22;1249;51.270;6.756;2023-06-05T00:36:08;22.30;63.00
2477;DHT22;1249;51.270;6.756;2023-06-05T00:38:33;22.30;63.00
2477;DHT22;1249;51.270;6.756;2023-06-05T00:40:59;22.30;63.10
2477;DHT22;1249;51.270;6.756;2023-06-05T00:43:25;22.30;63.20
2477;DHT22;1249;51.270;6.756;2023-06-05T00:45:58;22.30;63.30
2477;DHT22;1249;51.270;6.756;2023-06-05T00:48:25;22.20;63.50
2477;DHT22;1249;51.270;6.756;2023-06-05T00:50:51;22.20;63.50
2477;DHT22;1249;51.270;6.756;2023-06-05T00:53:16;22.20;63.60
2477;DHT22;1249;51.270;6.756;2023-06-05T00:55:42;22.20;63.80
2477;DHT22;1249;51.270;6.756;2023-06-05T00:58:08;22.10;63.90
2477;DHT22;1249;51.270;6.756;2023-06-05T01:00:33;22.10;64.00
2477;DHT22;1249;51.270;6.756;2023-06-05T01:02:59;22.10;64.10
2477;DHT22;1249;51.270;6.756;2023-06-05T01:05:25;22.10;64.30
2477;DHT22;1249;51.270;6.756;2023-06-05T01:07:51;22.10;64.40
2477;DHT22;1249;51.270;6.756;2023-06-05T01:10:17;22.10;64.50
2477;DHT22;1249;51.270;6.756;2023-06-05T01:13:05;22.00;64.70
2477;DHT22;1249;51.270;6.756;2023-06-05T01:15:32;22.00;64.80
2477;DHT22;1249;51.270;6.756;2023-06-05T01:17:59;22.00;65.00
2477;DHT22;1249;51.270;6.756;2023-06-05T01:20:39;22.00;65.10
2477;DHT22;1249;51.270;6.756;2023-06-05T01:23:08;21.90;65.10
2477;DHT22;1249;51.270;6.756;2023-06-05T01:25:35;21.90;65.40
2477;DHT22;1249;51.270;6.756;2023-06-05T01:28:16;21.90;65.50
2477;DHT22;1249;51.270;6.756;2023-06-05T01:31:03;21.80;65.60
2477;DHT22;1249;51.270;6.756;2023-06-05T01:33:33;21.80;65.70
2477;DHT22;1249;51.270;6.756;2023-06-05T01:36:08;21.80;65.80
2477;DHT22;1249;51.270;6.756;2023-06-05T01:38:35;21.80;66.10
2477;DHT22;1249;51.270;6.756;2023-06-05T01:41:03;21.80;66.10
2477;DHT22;1249;51.270;6.756;2023-06-05T01:43:30;21.70;66.30
2477;DHT22;1249;51.270;6.756;2023-06-05T01:45:56;21.70;66.40
2477;DHT22;1249;51.270;6.756;2023-06-05T01:48:24;21.70;66.50
2477;DHT22;1249;51.270;6.756;2023-06-05T01:50:57;21.70;66.70
2477;DHT22;1249;51.270;6.756;2023-06-05T01:53:22;21.70;66.90
2477;DHT22;1249;51.270;6.756;2023-06-05T01:55:48;21.60;66.90
2477;DHT22;1249;51.270;6.756;2023-06-05T01:58:14;21.60;66.90
2477;DHT22;1249;51.270;6.756;2023-06-05T02:00:40;21.60;67.10
2477;DHT22;1249;51.270;6.756;2023-06-05T02:03:07;21.60;67.20
2477;DHT22;1249;51.270;6.756;2023-06-05T02:05:33;21.60;67.40
2477;DHT22;1249;51.270;6.756;2023-06-05T02:07:58;21.50;67.40
2477;DHT22;1249;51.270;6.756;2023-06-05T02:10:24;21.50;67.60
2477;DHT22;1249;51.270;6.756;2023-06-05T02:12:50;21.50;67.70
2477;DHT22;1249;51.270;6.756;2023-06-05T02:15:16;21.50;67.80
2477;DHT22;1249;51.270;6.756;2023-06-05T02:17:43;21.50;68.00
2477;DHT22;1249;51.270;6.756;2023-06-05T02:20:16;21.50;68.00
2477;DHT22;1249;51.270;6.756;2023-06-05T02:22:42;21.50;68.20
2477;DHT22;1249;51.270;6.756;2023-06-05T02:25:08;21.50;68.30
2477;DHT22;1249;51.270;6.756;2023-06-05T02:27:36;21.40;68.30
2477;DHT22;1249;51.270;6.756;2023-06-05T02:30:01;21.40;68.50
2477;DHT22;1249;51.270;6.756;2023-06-05T02:32:27;21.40;68.60
2477;DHT22;1249;51.270;6.756;2023-06-05T02:34:54;21.40;68.80
2477;DHT22;1249;51.270;6.756;2023-06-05T02:37:23;21.40;68.90
2477;DHT22;1249;51.270;6.756;2023-06-05T02:39:49;21.40;68.80
2477;DHT22;1249;51.270;6.756;2023-06-05T02:42:15;21.30;68.90
2477;DHT22;1249;51.270;6.756;2023-06-05T02:44:40;21.30;69.10
2477;DHT22;1249;51.270;6.756;2023-06-05T02:47:06;21.30;69.10
2477;DHT22;1249;51.270;6.756;2023-06-05T02:49:31;21.30;69.20
2477;DHT22;1249;51.270;6.756;2023-06-05T02:51:58;21.30;69.50
2477;DHT22;1249;51.270;6.756;2023-06-05T02:54:24;21.30;70.40
2477;DHT22;1249;51.270;6.756;2023-06-05T02:56:50;21.30;69.70
2477;DHT22;1249;51.270;6.756;2023-06-05T02:59:16;21.20;69.80
2477;DHT22;1249;51.270;6.756;2023-06-05T03:01:41;21.20;69.90
2477;DHT22;1249;51.270;6.756;2023-06-05T03:04:13;21.20;70.00
2477;DHT22;1249;51.270;6.756;2023-06-05T03:06:38;21.20;70.00
2477;DHT22;1249;51.270;6.756;2023-06-05T03:09:04;21.20;70.10
2477;DHT22;1249;51.270;6.756;2023-06-05T03:11:29;21.10;70.10
2477;DHT22;1249;51.270;6.756;2023-06-05T03:13:55;21.10;70.30
2477;DHT22;1249;51.270;6.756;2023-06-05T03:16:20;21.10;70.30
2477;DHT22;1249;51.270;6.756;2023-06-05T03:18:48;21.10;70.50
2477;DHT22;1249;51.270;6.756;2023-06-05T03:21:14;21.10;70.60
2477;DHT22;1249;51.270;6.756;2023-06-05T03:23:39;21.10;70.80
2477;DHT22;1249;51.270;6.756;2023-06-05T03:26:05;21.00;70.80
2477;DHT22;1249;51.270;6.756;2023-06-05T03:28:31;21.00;70.90
2477;DHT22;1249;51.270;6.756;2023-06-05T03:30:59;21.00;71.10
2477;DHT22;1249;51.270;6.756;2023-06-05T03:33:25;21.00;71.20
2477;DHT22;1249;51.270;6.756;2023-06-05T03:35:50;21.00;71.30
2477;DHT22;1249;51.270;6.756;2023-06-05T03:38:17;20.90;71.40
2477;DHT22;1249;51.270;6.756;2023-06-05T03:40:43;20.90;71.50
2477;DHT22;1249;51.270;6.756;2023-06-05T03:43:09;21.00;71.60
2477;DHT22;1249;51.270;6.756;2023-06-05T03:45:36;21.00;71.70
2477;DHT22;1249;51.270;6.756;2023-06-05T03:48:02;20.90;71.90
2477;DHT22;1249;51.270;6.756;2023-06-05T03:50:28;20.90;71.90
2477;DHT22;1249;51.270;6.756;2023-06-05T03:52:59;20.90;71.90
2477;DHT22;1249;51.270;6.756;2023-06-05T03:55:31;20.90;72.10
2477;DHT22;1249;51.270;6.756;2023-06-05T03:58:10;20.90;72.20
2477;DHT22;1249;51.270;6.756;2023-06-05T04:00:43;20.90;72.30
2477;DHT22;1249;51.270;6.756;2023-06-05T04:03:09;20.90;72.30
2477;DHT22;1249;51.270;6.756;2023-06-05T04:05:37;20.80;72.30
2477;DHT22;1249;51.270;6.756;2023-06-05T04:08:03;20.80;72.50
2477;DHT22;1249;51.270;6.756;2023-06-05T04:10:29;20.80;72.40
2477;DHT22;1249;51.270;6.756;2023-06-05T04:12:54;20.80;72.70
2477;DHT22;1249;51.270;6.756;2023-06-05T04:15:22;20.80;72.70
2477;DHT22;1249;51.270;6.756;2023-06-05T04:17:48;20.80;72.90
2477;DHT22;1249;51.270;6.756;2023-06-05T04:20:13;20.80;72.90
2477;DHT22;1249;51.270;6.756;2023-06-05T04:22:40;20.80;73.00
2477;DHT22;1249;51.270;6.756;2023-06-05T04:25:06;20.80;73.10
2477;DHT22;1249;51.270;6.756;2023-06-05T04:27:32;20.80;73.20
2477;DHT22;1249;51.270;6.756;2023-06-05T04:29:57;20.80;73.20
2477;DHT22;1249;51.270;6.756;2023-06-05T04:32:23;20.70;73.30
2477;DHT22;1249;51.270;6.756;2023-06-05T04:34:48;20.70;73.40
2477;DHT22;1249;51.270;6.756;2023-06-05T04:37:14;20.80;73.60
2477;DHT22;1249;51.270;6.756;2023-06-05T04:39:39;20.80;73.50
2477;DHT22;1249;51.270;6.756;2023-06-05T04:42:05;20.80;73.30
2477;DHT22;1249;51.270;6.756;2023-06-05T04:44:32;20.80;73.70
2477;DHT22;1249;51.270;6.756;2023-06-05T04:46:58;20.80;73.60
2477;DHT22;1249;51.270;6.756;2023-06-05T04:49:23;20.80;73.70
2477;DHT22;1249;51.270;6.756;2023-06-05T04:51:49;20.80;73.60
2477;DHT22;1249;51.270;6.756;2023-06-05T04:54:14;20.80;73.80
2477;DHT22;1249;51.270;6.756;2023-06-05T04:56:40;20.80;73.80
2477;DHT22;1249;51.270;6.756;2023-06-05T04:59:05;20.80;73.90
2477;DHT22;1249;51.270;6.756;2023-06-05T05:01:31;20.70;73.80
2477;DHT22;1249;51.270;6.756;2023-06-05T05:03:57;20.80;74.10
2477;DHT22;1249;51.270;6.756;2023-06-05T05:06:24;20.70;73.60
2477;DHT22;1249;51.270;6.756;2023-06-05T05:08:49;20.80;73.60
2477;DHT22;1249;51.270;6.756;2023-06-05T05:11:16;20.70;73.00
2477;DHT22;1249;51.270;6.756;2023-06-05T05:13:42;20.70;72.70
2477;DHT22;1249;51.270;6.756;2023-06-05T05:16:08;20.70;72.50
2477;DHT22;1249;51.270;6.756;2023-06-05T05:18:44;20.70;72.40
2477;DHT22;1249;51.270;6.756;2023-06-05T05:21:09;20.80;72.50
2477;DHT22;1249;51.270;6.756;2023-06-05T05:23:35;20.80;72.40
2477;DHT22;1249;51.270;6.756;2023-06-05T05:26:01;20.80;72.60
2477;DHT22;1249;51.270;6.756;2023-06-05T05:28:28;20.80;73.20
2477;DHT22;1249;51.270;6.756;2023-06-05T05:30:56;20.90;73.10
2477;DHT22;1249;51.270;6.756;2023-06-05T05:33:23;20.90;73.80
2477;DHT22;1249;51.270;6.756;2023-06-05T05:35:49;21.00;74.30
2477;DHT22;1249;51.270;6.756;2023-06-05T05:38:14;21.00;75.00
2477;DHT22;1249;51.270;6.756;2023-06-05T05:40:40;21.00;75.20
2477;DHT22;1249;51.270;6.756;2023-06-05T05:43:06;21.00;75.60
2477;DHT22;1249;51.270;6.756;2023-06-05T05:45:32;21.00;74.90
2477;DHT22;1249;51.270;6.756;2023-06-05T05:47:57;21.10;73.90
2477;DHT22;1249;51.270;6.756;2023-06-05T05:50:23;21.10;73.00
2477;DHT22;1249;51.270;6.756;2023-06-05T05:52:48;21.10;72.40
2477;DHT22;1249;51.270;6.756;2023-06-05T05:55:14;21.20;71.20
2477;DHT22;1249;51.270;6.756;2023-06-05T05:57:40;21.20;71.90
2477;DHT22;1249;51.270;6.756;2023-06-05T06:00:06;21.30;71.30
2477;DHT22;1249;51.270;6.756;2023-06-05T06:02:41;21.40;70.80
2477;DHT22;1249;51.270;6.756;2023-06-05T06:05:07;21.40;69.80
2477;DHT22;1249;51.270;6.756;2023-06-05T06:07:35;21.60;69.20
2477;DHT22;1249;51.270;6.756;2023-06-05T06:10:01;21.80;68.40
2477;DHT22;1249;51.270;6.756;2023-06-05T06:12:26;22.10;67.40
2477;DHT22;1249;51.270;6.756;2023-06-05T06:14:54;22.20;66.30
2477;DHT22;1249;51.270;6.756;2023-06-05T06:17:20;22.40;66.00
2477;DHT22;1249;51.270;6.756;2023-06-05T06:19:45;22.60;65.70
2477;DHT22;1249;51.270;6.756;2023-06-05T06:22:14;23.00;65.00
2477;DHT22;1249;51.270;6.756;2023-06-05T06:24:41;23.30;64.20
2477;DHT22;1249;51.270;6.756;2023-06-05T06:27:07;23.60;63.60
2477;DHT22;1249;51.270;6.756;2023-06-05T06:29:34;23.80;62.60
2477;DHT22;1249;51.270;6.756;2023-06-05T06:32:00;24.00;62.10
2477;DHT22;1249;51.270;6.756;2023-06-05T06:34:26;24.30;61.30
2477;DHT22;1249;51.270;6.756;2023-06-05T06:36:51;24.40;60.80
2477;DHT22;1249;51.270;6.756;2023-06-05T06:39:17;24.60;60.20
2477;DHT22;1249;51.270;6.756;2023-06-05T06:41:44;24.90;59.90
2477;DHT22;1249;51.270;6.756;2023-06-05T06:44:10;25.10;59.30
2477;DHT22;1249;51.270;6.756;2023-06-05T06:46:35;25.40;59.00
2477;DHT22;1249;51.270;6.756;2023-06-05T06:49:01;25.60;58.60
2477;DHT22;1249;51.270;6.756;2023-06-05T06:51:27;25.80;59.00
2477;DHT22;1249;51.270;6.756;2023-06-05T06:53:53;26.00;59.80
2477;DHT22;1249;51.270;6.756;2023-06-05T06:56:18;26.20;59.70
2477;DHT22;1249;51.270;6.756;2023-06-05T06:58:44;26.40;59.30
2477;DHT22;1249;51.270;6.756;2023-06-05T07:01:14;26.60;58.60
2477;DHT22;1249;51.270;6.756;2023-06-05T07:03:40;26.70;57.90
2477;DHT22;1249;51.270;6.756;2023-06-05T07:06:06;26.90;57.50
2477;DHT22;1249;51.270;6.756;2023-06-05T07:08:32;27.00;57.20
2477;DHT22;1249;51.270;6.756;2023-06-05T07:10:58;27.20;56.70
2477;DHT22;1249;51.270;6.756;2023-06-05T07:13:23;27.30;56.40
2477;DHT22;1249;51.270;6.756;2023-06-05T07:15:49;27.50;55.80
2477;DHT22;1249;51.270;6.756;2023-06-05T07:18:16;27.70;55.50
2477;DHT22;1249;51.270;6.756;2023-06-05T07:20:42;27.90;55.00
2477;DHT22;1249;51.270;6.756;2023-06-05T07:23:08;28.10;54.60
2477;DHT22;1249;51.270;6.756;2023-06-05T07:25:33;28.30;54.20
2477;DHT22;1249;51.270;6.756;2023-06-05T07:27:59;28.40;53.70
2477;DHT22;1249;51.270;6.756;2023-06-05T07:30:28;28.60;53.40
2477;DHT22;1249;51.270;6.756;2023-06-05T07:32:54;28.70;53.20
2477;DHT22;1249;51.270;6.756;2023-06-05T07:35:20;28.80;52.90
2477;DHT22;1249;51.270;6.756;2023-06-05T07:37:46;28.90;52.80
2477;DHT22;1249;51.270;6.756;2023-06-05T07:40:12;29.10;52.50
2477;DHT22;1249;51.270;6.756;2023-06-05T07:42:38;29.20;52.40
2477;DHT22;1249;51.270;6.756;2023-06-05T07:45:04;29.40;52.10
2477;DHT22;1249;51.270;6.756;2023-06-05T07:47:30;29.60;52.00
2477;DHT22;1249;51.270;6.756;2023-06-05T07:50:02;29.70;51.50
2477;DHT22;1249;51.270;6.756;2023-06-05T07:52:31;29.80;51.30
2477;DHT22;1249;51.270;6.756;2023-06-05T07:54:57;29.90;51.30
2477;DHT22;1249;51.270;6.756;2023-06-05T07:57:23;30.10;51.00
2477;DHT22;1249;51.270;6.756;2023-06-05T07:59:49;30.30;50.60
2477;DHT22;1249;51.270;6.756;2023-06-05T08:02:19;30.40;50.30
2477;DHT22;1249;51.270;6.756;2023-06-05T08:04:44;30.60;49.80
2477;DHT22;1249;51.270;6.756;2023-06-05T08:07:11;30.80;49.40
2477;DHT22;1249;51.270;6.756;2023-06-05T08:09:37;31.00;49.00
2477;DHT22;1249;51.270;6.756;2023-06-05T08:12:03;31.20;48.60
2477;DHT22;1249;51.270;6.756;2023-06-05T08:14:29;31.30;49.00
2477;DHT22;1249;51.270;6.756;2023-06-05T08:16:55;31.50;48.20
2477;DHT22;1249;51.270;6.756;2023-06-05T08:19:21;31.70;47.90
2477;DHT22;1249;51.270;6.756;2023-06-05T08:21:49;31.80;47.60
2477;DHT22;1249;51.270;6.756;2023-06-05T08:24:15;32.00;47.40
2477;DHT22;1249;51.270;6.756;2023-06-05T08:26:40;32.10;47.20
2477;DHT22;1249;51.270;6.756;2023-06-05T08:29:06;32.20;47.00
2477;DHT22;1249;51.270;6.756;2023-06-05T08:31:31;32.40;46.80
2477;DHT22;1249;51.270;6.756;2023-06-05T08:33:59;32.40;46.60
2477;DHT22;1249;51.270;6.756;2023-06-05T08:36:25;32.60;47.10
2477;DHT22;1249;51.270;6.756;2023-06-05T08:38:50;32.70;46.20
2477;DHT22;1249;51.270;6.756;2023-06-05T08:41:16;32.90;46.20
2477;DHT22;1249;51.270;6.756;2023-06-05T08:43:42;33.00;46.10
2477;DHT22;1249;51.270;6.756;2023-06-05T08:46:10;33.00;45.40
2477;DHT22;1249;51.270;6.756;2023-06-05T08:48:47;33.20;45.20
2477;DHT22;1249;51.270;6.756;2023-06-05T08:51:15;33.30;44.70
2477;DHT22;1249;51.270;6.756;2023-06-05T08:53:42;33.40;44.90
2477;DHT22;1249;51.270;6.756;2023-06-05T08:56:11;33.50;44.90
2477;DHT22;1249;51.270;6.756;2023-06-05T08:58:37;33.70;44.80
2477;DHT22;1249;51.270;6.756;2023-06-05T09:01:03;33.80;44.70
2477;DHT22;1249;51.270;6.756;2023-06-05T09:03:28;33.90;44.60
2477;DHT22;1249;51.270;6.756;2023-06-05T09:05:54;34.10;44.50
2477;DHT22;1249;51.270;6.756;2023-06-05T09:08:31;34.20;44.20
2477;DHT22;1249;51.270;6.756;2023-06-05T09:11:20;34.30;43.90
2477;DHT22;1249;51.270;6.756;2023-06-05T09:13:46;34.60;43.60
2477;DHT22;1249;51.270;6.756;2023-06-05T09:16:12;34.70;43.30
2477;DHT22;1249;51.270;6.756;2023-06-05T09:18:54;34.80;42.80
2477;DHT22;1249;51.270;6.756;2023-06-05T09:21:20;35.00;42.70
2477;DHT22;1249;51.270;6.756;2023-06-05T09:23:46;35.20;42.50
2477;DHT22;1249;51.270;6.756;2023-06-05T09:26:12;35.40;42.10
2477;DHT22;1249;51.270;6.756;2023-06-05T09:28:59;35.70;41.80
2477;DHT22;1249;51.270;6.756;2023-06-05T09:31:40;36.00;41.30
2477;DHT22;1249;51.270;6.756;2023-06-05T09:34:07;36.30;41.00
2477;DHT22;1249;51.270;6.756;2023-06-05T09:36:33;36.30;40.70
2477;DHT22;1249;51.270;6.756;2023-06-05T09:39:16;36.50;40.40
2477;DHT22;1249;51.270;6.756;2023-06-05T09:41:46;36.70;40.30
2477;DHT22;1249;51.270;6.756;2023-06-05T09:44:12;36.80;40.20
2477;DHT22;1249;51.270;6.756;2023-06-05T09:46:50;37.00;40.10
2477;DHT22;1249;51.270;6.756;2023-06-05T09:49:20;37.10;39.90
2477;DHT22;1249;51.270;6.756;2023-06-05T09:51:46;37.20;39.60
2477;DHT22;1249;51.270;6.756;2023-06-05T09:54:13;37.30;39.40
2477;DHT22;1249;51.270;6.756;2023-06-05T09:56:46;37.60;39.20
2477;DHT22;1249;51.270;6.756;2023-06-05T09:59:18;37.80;38.90
2477;DHT22;1249;51.270;6.756;2023-06-05T10:01:44;37.90;38.60
2477;DHT22;1249;51.270;6.756;2023-06-05T10:04:13;38.20;38.40
2477;DHT22;1249;51.270;6.756;2023-06-05T10:06:42;38.30;38.20
2477;DHT22;1249;51.270;6.756;2023-06-05T10:09:08;38.40;38.00
2477;DHT22;1249;51.270;6.756;2023-06-05T10:11:35;38.60;37.40
2477;DHT22;1249;51.270;6.756;2023-06-05T10:14:01;38.90;37.10
2477;DHT22;1249;51.270;6.756;2023-06-05T10:16:28;39.00;37.10
2477;DHT22;1249;51.270;6.756;2023-06-05T10:18:55;39.10;36.60
2477;DHT22;1249;51.270;6.756;2023-06-05T10:21:22;39.10;36.30
2477;DHT22;1249;51.270;6.756;2023-06-05T10:23:55;39.30;35.50
2477;DHT22;1249;51.270;6.756;2023-06-05T10:31:52;40.00;35.60
2477;DHT22;1249;51.270;6.756;2023-06-05T10:37:34;40.40;35.30
2477;DHT22;1249;51.270;6.756;2023-06-05T10:40:03;40.60;35.40
2477;DHT22;1249;51.270;6.756;2023-06-05T10:42:30;40.70;35.20
2477;DHT22;1249;51.270;6.756;2023-06-05T10:44:56;40.80;34.30
2477;DHT22;1249;51.270;6.756;2023-06-05T10:52:48;41.30;33.90
2477;DHT22;1249;51.270;6.756;2023-06-05T10:55:14;41.50;33.60
2477;DHT22;1249;51.270;6.756;2023-06-05T11:00:30;41.70;32.80
2477;DHT22;1249;51.270;6.756;2023-06-05T11:02:56;41.90;32.60
2477;DHT22;1249;51.270;6.756;2023-06-05T11:05:22;42.00;32.30
2477;DHT22;1249;51.270;6.756;2023-06-05T11:08:14;42.10;31.80
2477;DHT22;1249;51.270;6.756;2023-06-05T11:11:16;42.30;31.70
2477;DHT22;1249;51.270;6.756;2023-06-05T11:16:32;42.60;31.90
2477;DHT22;1249;51.270;6.756;2023-06-05T11:22:08;43.00;31.80
2477;DHT22;1249;51.270;6.756;2023-06-05T11:24:37;43.30;31.70
2477;DHT22;1249;51.270;6.756;2023-06-05T11:27:04;43.50;31.50
2477;DHT22;1249;51.270;6.756;2023-06-05T11:29:31;43.60;31.60
2477;DHT22;1249;51.270;6.756;2023-06-05T11:31:58;43.80;31.30
2477;DHT22;1249;51.270;6.756;2023-06-05T11:34:24;43.90;31.00
2477;DHT22;1249;51.270;6.756;2023-06-05T11:36:51;44.00;31.10
2477;DHT22;1249;51.270;6.756;2023-06-05T11:39:16;44.20;31.20
2477;DHT22;1249;51.270;6.756;2023-06-05T11:41:49;44.40;31.20
2477;DHT22;1249;51.270;6.756;2023-06-05T11:44:30;44.40;31.10
2477;DHT22;1249;51.270;6.756;2023-06-05T11:46:56;44.60;31.10
2477;DHT22;1249;51.270;6.756;2023-06-05T11:49:27;44.80;30.30
2477;DHT22;1249;51.270;6.756;2023-06-05T11:51:54;44.90;30.20
2477;DHT22;1249;51.270;6.756;2023-06-05T11:54:29;44.90;30.40
2477;DHT22;1249;51.270;6.756;2023-06-05T11:57:03;45.10;30.20
2477;DHT22;1249;51.270;6.756;2023-06-05T11:59:37;45.20;30.50
2477;DHT22;1249;51.270;6.756;2023-06-05T12:02:04;45.40;29.50
2477;DHT22;1249;51.270;6.756;2023-06-05T12:04:31;45.60;29.90
2477;DHT22;1249;51.270;6.756;2023-06-05T12:06:57;45.80;30.00
2477;DHT22;1249;51.270;6.756;2023-06-05T12:09:25;45.90;30.00
2477;DHT22;1249;51.270;6.756;2023-06-05T12:11:51;45.90;30.10
2477;DHT22;1249;51.270;6.756;2023-06-05T12:14:30;46.10;29.50
2477;DHT22;1249;51.270;6.756;2023-06-05T12:16:57;46.10;29.40
2477;DHT22;1249;51.270;6.756;2023-06-05T12:19:22;46.30;29.20
2477;DHT22;1249;51.270;6.756;2023-06-05T12:21:48;46.40;28.80
2477;DHT22;1249;51.270;6.756;2023-06-05T12:24:25;46.50;28.30
2477;DHT22;1249;51.270;6.756;2023-06-05T12:27:00;46.60;29.10
2477;DHT22;1249;51.270;6.756;2023-06-05T12:29:30;46.80;29.00
2477;DHT22;1249;51.270;6.756;2023-06-05T12:31:57;46.80;29.00
2477;DHT22;1249;51.270;6.756;2023-06-05T12:34:46;46.80;29.00
2477;DHT22;1249;51.270;6.756;2023-06-05T12:37:28;46.80;28.00
2477;DHT22;1249;51.270;6.756;2023-06-05T12:39:58;46.90;27.70
2477;DHT22;1249;51.270;6.756;2023-06-05T12:42:24;46.90;28.00
2477;DHT22;1249;51.270;6.756;2023-06-05T12:44:50;46.80;27.90
2477;DHT22;1249;51.270;6.756;2023-06-05T12:47:16;46.90;27.70
2477;DHT22;1249;51.270;6.756;2023-06-05T12:49:42;47.00;27.80
2477;DHT22;1249;51.270;6.756;2023-06-05T12:52:08;47.10;27.80
2477;DHT22;1249;51.270;6.756;2023-06-05T12:54:37;47.10;28.30
2477;DHT22;1249;51.270;6.756;2023-06-05T12:57:04;47.20;27.70
2477;DHT22;1249;51.270;6.756;2023-06-05T12:59:32;47.30;27.60
2477;DHT22;1249;51.270;6.756;2023-06-05T13:01:57;47.40;28.00
2477;DHT22;1249;51.270;6.756;2023-06-05T13:04:23;47.50;28.10
2477;DHT22;1249;51.270;6.756;2023-06-05T13:06:49;47.50;28.40
2477;DHT22;1249;51.270;6.756;2023-06-05T13:09:15;47.50;27.70
2477;DHT22;1249;51.270;6.756;2023-06-05T13:11:41;47.60;27.80
2477;DHT22;1249;51.270;6.756;2023-06-05T13:14:06;47.70;28.30
2477;DHT22;1249;51.270;6.756;2023-06-05T13:16:32;47.60;28.30
2477;DHT22;1249;51.270;6.756;2023-06-05T13:18:57;47.70;28.20
2477;DHT22;1249;51.270;6.756;2023-06-05T13:21:23;47.60;28.00
2477;DHT22;1249;51.270;6.756;2023-06-05T13:23:50;47.60;27.80
2477;DHT22;1249;51.270;6.756;2023-06-05T13:26:15;47.50;27.40
2477;DHT22;1249;51.270;6.756;2023-06-05T13:28:41;47.50;28.00
2477;DHT22;1249;51.270;6.756;2023-06-05T13:31:09;47.50;28.00
2477;DHT22;1249;51.270;6.756;2023-06-05T13:33:36;47.50;28.00
2477;DHT22;1249;51.270;6.756;2023-06-05T13:36:02;47.60;28.20
2477;DHT22;1249;51.270;6.756;2023-06-05T13:38:27;47.60;28.20
2477;DHT22;1249;51.270;6.756;2023-06-05T13:40:53;47.60;28.30
2477;DHT22;1249;51.270;6.756;2023-06-05T13:43:19;47.60;28.30
2477;DHT22;1249;51.270;6.756;2023-06-05T13:45:45;47.50;28.30
2477;DHT22;1249;51.270;6.756;2023-06-05T13:48:10;47.50;28.10
2477;DHT22;1249;51.270;6.756;2023-06-05T13:50:36;47.50;28.20
2477;DHT22;1249;51.270;6.756;2023-06-05T13:53:02;47.50;28.30
2477;DHT22;1249;51.270;6.756;2023-06-05T13:55:28;47.50;28.00
2477;DHT22;1249;51.270;6.756;2023-06-05T13:57:53;47.50;28.20
2477;DHT22;1249;51.270;6.756;2023-06-05T14:00:21;47.50;28.30
2477;DHT22;1249;51.270;6.756;2023-06-05T14:02:47;47.40;28.10
2477;DHT22;1249;51.270;6.756;2023-06-05T14:05:13;47.40;28.10
2477;DHT22;1249;51.270;6.756;2023-06-05T14:07:38;47.20;28.20
2477;DHT22;1249;51.270;6.756;2023-06-05T14:10:04;47.20;28.00
2477;DHT22;1249;51.270;6.756;2023-06-05T14:12:31;47.20;28.00
2477;DHT22;1249;51.270;6.756;2023-06-05T14:14:57;47.10;27.60
2477;DHT22;1249;51.270;6.756;2023-06-05T14:17:23;47.10;27.70
2477;DHT22;1249;51.270;6.756;2023-06-05T14:19:48;47.00;28.00
2477;DHT22;1249;51.270;6.756;2023-06-05T14:22:14;46.90;28.10
2477;DHT22;1249;51.270;6.756;2023-06-05T14:24:39;46.90;28.20
2477;DHT22;1249;51.270;6.756;2023-06-05T14:27:05;46.90;28.40
2477;DHT22;1249;51.270;6.756;2023-06-05T14:29:31;46.80;28.50
2477;DHT22;1249;51.270;6.756;2023-06-05T14:31:57;46.60;28.30
2477;DHT22;1249;51.270;6.756;2023-06-05T14:34:22;46.40;28.40
2477;DHT22;1249;51.270;6.756;2023-06-05T14:36:48;46.30;28.40
2477;DHT22;1249;51.270;6.756;2023-06-05T14:39:17;46.20;28.60
2477;DHT22;1249;51.270;6.756;2023-06-05T14:41:44;46.10;28.50
2477;DHT22;1249;51.270;6.756;2023-06-05T14:44:09;46.00;28.70
2477;DHT22;1249;51.270;6.756;2023-06-05T14:46:35;45.90;28.80
2477;DHT22;1249;51.270;6.756;2023-06-05T14:49:00;45.80;28.60
2477;DHT22;1249;51.270;6.756;2023-06-05T14:51:26;45.80;28.90
2477;DHT22;1249;51.270;6.756;2023-06-05T14:53:51;45.70;29.00
2477;DHT22;1249;51.270;6.756;2023-06-05T14:56:17;45.60;28.00
2477;DHT22;1249;51.270;6.756;2023-06-05T14:58:42;45.50;27.90
2477;DHT22;1249;51.270;6.756;2023-06-05T15:01:08;45.40;28.70
2477;DHT22;1249;51.270;6.756;2023-06-05T15:03:33;45.30;28.80
2477;DHT22;1249;51.270;6.756;2023-06-05T15:05:59;45.20;28.90
2477;DHT22;1249;51.270;6.756;2023-06-05T15:08:25;45.10;29.00
2477;DHT22;1249;51.270;6.756;2023-06-05T15:10:50;44.90;28.60
2477;DHT22;1249;51.270;6.756;2023-06-05T15:13:16;44.80;29.30
2477;DHT22;1249;51.270;6.756;2023-06-05T15:15:42;44.70;29.50
2477;DHT22;1249;51.270;6.756;2023-06-05T15:18:08;44.50;28.50
2477;DHT22;1249;51.270;6.756;2023-06-05T15:20:34;44.40;29.30
2477;DHT22;1249;51.270;6.756;2023-06-05T15:22:59;44.20;29.40
2477;DHT22;1249;51.270;6.756;2023-06-05T15:25:25;44.10;29.50
2477;DHT22;1249;51.270;6.756;2023-06-05T15:27:52;44.00;29.60
2477;DHT22;1249;51.270;6.756;2023-06-05T15:30:18;43.80;29.40
2477;DHT22;1249;51.270;6.756;2023-06-05T15:32:43;43.70;29.80
2477;DHT22;1249;51.270;6.756;2023-06-05T15:35:10;43.60;29.60
2477;DHT22;1249;51.270;6.756;2023-06-05T15:37:36;43.30;29.80
2477;DHT22;1249;51.270;6.756;2023-06-05T15:40:02;43.20;29.90
2477;DHT22;1249;51.270;6.756;2023-06-05T15:42:34;43.00;30.30
2477;DHT22;1249;51.270;6.756;2023-06-05T15:45:10;42.80;30.80
2477;DHT22;1249;51.270;6.756;2023-06-05T15:47:37;42.50;30.80
2477;DHT22;1249;51.270;6.756;2023-06-05T15:50:03;42.30;31.10
2477;DHT22;1249;51.270;6.756;2023-06-05T15:52:33;42.10;31.30
2477;DHT22;1249;51.270;6.756;2023-06-05T15:54:59;41.90;31.20
2477;DHT22;1249;51.270;6.756;2023-06-05T15:57:25;41.80;31.70
2477;DHT22;1249;51.270;6.756;2023-06-05T15:59:51;41.70;32.20
2477;DHT22;1249;51.270;6.756;2023-06-05T16:02:17;41.50;32.30
2477;DHT22;1249;51.270;6.756;2023-06-05T16:04:43;41.30;32.20
2477;DHT22;1249;51.270;6.756;2023-06-05T16:07:09;41.20;32.40
2477;DHT22;1249;51.270;6.756;2023-06-05T16:09:35;41.10;33.00
2477;DHT22;1249;51.270;6.756;2023-06-05T16:12:00;40.90;33.00
2477;DHT22;1249;51.270;6.756;2023-06-05T16:14:26;40.70;32.80
2477;DHT22;1249;51.270;6.756;2023-06-05T16:16:54;40.50;33.10
2477;DHT22;1249;51.270;6.756;2023-06-05T16:19:20;40.30;33.30
2477;DHT22;1249;51.270;6.756;2023-06-05T16:21:46;40.10;33.20
2477;DHT22;1249;51.270;6.756;2023-06-05T16:24:12;40.00;33.70
2477;DHT22;1249;51.270;6.756;2023-06-05T16:26:39;39.80;32.90